sensor_id;sensor_type;location;lat;lon;timestamp;P1;durP1;ratioP1;P2;durP2;ratioP2
36599;SDS011;35385;55.668;37.508;2023-03-23T00:00:22;3.38;;;2.38;;
36599;SDS011;35385;55.668;37.508;2023-03-23T00:01:23;2.93;;;2.40;;
36599;SDS011;35385;55.668;37.508;2023-03-23T00:02:27;3.40;;;2.60;;
36599;SDS011;35385;55.668;37.508;2023-03-23T00:03:28;4.03;;;2.50;;
36599;SDS011;35385;55.668;37.508;2023-03-23T00:04:31;3.25;;;2.33;;
36599;SDS011;35385;55.668;37.508;2023-03-23T00:05:32;5.13;;;2.80;;
36599;SDS011;35385;55.668;37.508;2023-03-23T00:06:33;3.23;;;2.60;;
36599;SDS011;35385;55.668;37.508;2023-03-23T00:07:34;3.08;;;2.50;;
36599;SDS011;35385;55.668;37.508;2023-03-23T00:08:37;4.38;;;2.67;;
36599;SDS011;35385;55.668;37.508;2023-03-23T00:09:45;2.67;;;2.28;;
36599;SDS011;35385;55.668;37.508;2023-03-23T00:10:50;4.45;;;2.85;;
36599;SDS011;35385;55.668;37.508;2023-03-23T00:11:56;4.03;;;2.50;;
36599;SDS011;35385;55.668;37.508;2023-03-23T00:13:05;3.80;;;2.53;;
36599;SDS011;35385;55.668;37.508;2023-03-23T00:14:05;3.22;;;2.40;;
36599;SDS011;35385;55.668;37.508;2023-03-23T00:15:12;2.90;;;2.15;;
36599;SDS011;35385;55.668;37.508;2023-03-23T00:16:16;3.40;;;2.70;;
36599;SDS011;35385;55.668;37.508;2023-03-23T00:18:19;2.63;;;2.35;;
36599;SDS011;35385;55.668;37.508;2023-03-23T00:19:23;3.67;;;2.55;;
36599;SDS011;35385;55.668;37.508;2023-03-23T00:20:23;4.10;;;2.43;;
36599;SDS011;35385;55.668;37.508;2023-03-23T00:21:25;4.00;;;3.40;;
36599;SDS011;35385;55.668;37.508;2023-03-23T00:22:34;3.25;;;2.58;;
36599;SDS011;35385;55.668;37.508;2023-03-23T00:23:38;4.35;;;2.80;;
36599;SDS011;35385;55.668;37.508;2023-03-23T00:24:39;3.25;;;2.40;;
36599;SDS011;35385;55.668;37.508;2023-03-23T00:25:40;2.70;;;2.20;;
36599;SDS011;35385;55.668;37.508;2023-03-23T00:26:41;3.63;;;2.43;;
36599;SDS011;35385;55.668;37.508;2023-03-23T00:27:43;3.22;;;2.33;;
36599;SDS011;35385;55.668;37.508;2023-03-23T00:28:44;4.07;;;2.60;;
36599;SDS011;35385;55.668;37.508;2023-03-23T00:29:46;4.22;;;2.55;;
36599;SDS011;35385;55.668;37.508;2023-03-23T00:30:47;4.10;;;2.50;;
36599;SDS011;35385;55.668;37.508;2023-03-23T00:31:47;6.07;;;2.87;;
36599;SDS011;35385;55.668;37.508;2023-03-23T00:32:48;3.83;;;2.80;;
36599;SDS011;35385;55.668;37.508;2023-03-23T00:33:50;3.83;;;2.85;;
36599;SDS011;35385;55.668;37.508;2023-03-23T00:34:51;3.43;;;2.70;;
36599;SDS011;35385;55.668;37.508;2023-03-23T00:35:52;5.00;;;2.80;;
36599;SDS011;35385;55.668;37.508;2023-03-23T00:36:53;4.32;;;2.70;;
36599;SDS011;35385;55.668;37.508;2023-03-23T00:37:58;3.20;;;2.67;;
36599;SDS011;35385;55.668;37.508;2023-03-23T00:38:58;5.63;;;2.50;;
36599;SDS011;35385;55.668;37.508;2023-03-23T00:39:59;5.47;;;2.67;;
36599;SDS011;35385;55.668;37.508;2023-03-23T00:41:00;4.35;;;2.60;;
36599;SDS011;35385;55.668;37.508;2023-03-23T00:42:02;3.05;;;2.40;;
36599;SDS011;35385;55.668;37.508;2023-03-23T00:43:04;3.47;;;2.80;;
36599;SDS011;35385;55.668;37.508;2023-03-23T00:44:04;3.13;;;2.73;;
36599;SDS011;35385;55.668;37.508;2023-03-23T00:45:05;3.50;;;2.50;;
36599;SDS011;35385;55.668;37.508;2023-03-23T00:46:10;3.22;;;2.38;;
36599;SDS011;35385;55.668;37.508;2023-03-23T00:47:11;3.30;;;2.30;;
36599;SDS011;35385;55.668;37.508;2023-03-23T00:48:15;4.82;;;2.72;;
36599;SDS011;35385;55.668;37.508;2023-03-23T00:49:20;3.67;;;2.43;;
36599;SDS011;35385;55.668;37.508;2023-03-23T00:50:27;2.95;;;2.42;;
36599;SDS011;35385;55.668;37.508;2023-03-23T00:51:28;3.40;;;2.70;;
36599;SDS011;35385;55.668;37.508;2023-03-23T00:52:28;3.83;;;2.97;;
36599;SDS011;35385;55.668;37.508;2023-03-23T00:53:29;4.67;;;2.73;;
36599;SDS011;35385;55.668;37.508;2023-03-23T00:54:29;3.23;;;2.67;;
36599;SDS011;35385;55.668;37.508;2023-03-23T00:55:30;3.70;;;2.60;;
36599;SDS011;35385;55.668;37.508;2023-03-23T00:56:30;3.50;;;2.90;;
36599;SDS011;35385;55.668;37.508;2023-03-23T00:57:31;2.77;;;2.40;;
36599;SDS011;35385;55.668;37.508;2023-03-23T00:58:32;3.50;;;2.77;;
36599;SDS011;35385;55.668;37.508;2023-03-23T00:59:32;2.87;;;2.27;;
36599;SDS011;35385;55.668;37.508;2023-03-23T01:00:33;4.23;;;2.67;;
36599;SDS011;35385;55.668;37.508;2023-03-23T01:01:34;4.93;;;2.53;;
36599;SDS011;35385;55.668;37.508;2023-03-23T01:02:35;3.22;;;2.33;;
36599;SDS011;35385;55.668;37.508;2023-03-23T01:03:36;5.37;;;2.83;;
36599;SDS011;35385;55.668;37.508;2023-03-23T01:04:39;4.53;;;2.73;;
36599;SDS011;35385;55.668;37.508;2023-03-23T01:05:40;4.30;;;2.75;;
36599;SDS011;35385;55.668;37.508;2023-03-23T01:06:42;4.73;;;2.70;;
36599;SDS011;35385;55.668;37.508;2023-03-23T01:07:44;2.97;;;2.35;;
36599;SDS011;35385;55.668;37.508;2023-03-23T01:08:45;3.13;;;2.55;;
36599;SDS011;35385;55.668;37.508;2023-03-23T01:09:49;3.10;;;2.80;;
36599;SDS011;35385;55.668;37.508;2023-03-23T01:11:00;3.45;;;2.60;;
36599;SDS011;35385;55.668;37.508;2023-03-23T01:12:03;5.55;;;2.80;;
36599;SDS011;35385;55.668;37.508;2023-03-23T01:13:04;4.00;;;2.50;;
36599;SDS011;35385;55.668;37.508;2023-03-23T01:14:05;4.68;;;2.45;;
36599;SDS011;35385;55.668;37.508;2023-03-23T01:15:06;3.67;;;2.63;;
36599;SDS011;35385;55.668;37.508;2023-03-23T01:16:08;3.90;;;2.70;;
36599;SDS011;35385;55.668;37.508;2023-03-23T01:17:09;3.03;;;2.58;;
36599;SDS011;35385;55.668;37.508;2023-03-23T01:18:10;4.77;;;3.13;;
36599;SDS011;35385;55.668;37.508;2023-03-23T01:19:10;4.70;;;3.00;;
36599;SDS011;35385;55.668;37.508;2023-03-23T01:20:12;5.30;;;2.83;;
36599;SDS011;35385;55.668;37.508;2023-03-23T01:21:16;4.25;;;2.75;;
36599;SDS011;35385;55.668;37.508;2023-03-23T01:22:19;4.38;;;2.78;;
36599;SDS011;35385;55.668;37.508;2023-03-23T01:23:19;3.83;;;2.70;;
36599;SDS011;35385;55.668;37.508;2023-03-23T01:24:20;3.70;;;2.73;;
36599;SDS011;35385;55.668;37.508;2023-03-23T01:25:21;3.87;;;2.67;;
36599;SDS011;35385;55.668;37.508;2023-03-23T01:26:22;5.63;;;3.13;;
36599;SDS011;35385;55.668;37.508;2023-03-23T01:27:25;4.53;;;2.50;;
36599;SDS011;35385;55.668;37.508;2023-03-23T01:28:26;4.70;;;2.97;;
36599;SDS011;35385;55.668;37.508;2023-03-23T01:29:26;3.13;;;2.67;;
36599;SDS011;35385;55.668;37.508;2023-03-23T01:30:27;5.07;;;2.83;;
36599;SDS011;35385;55.668;37.508;2023-03-23T01:31:27;5.40;;;2.90;;
36599;SDS011;35385;55.668;37.508;2023-03-23T01:32:28;3.80;;;2.80;;
36599;SDS011;35385;55.668;37.508;2023-03-23T01:33:29;6.55;;;2.80;;
36599;SDS011;35385;55.668;37.508;2023-03-23T01:34:30;4.35;;;2.58;;
36599;SDS011;35385;55.668;37.508;2023-03-23T01:35:31;3.53;;;2.83;;
36599;SDS011;35385;55.668;37.508;2023-03-23T01:36:32;3.57;;;2.53;;
36599;SDS011;35385;55.668;37.508;2023-03-23T01:37:32;4.72;;;2.72;;
36599;SDS011;35385;55.668;37.508;2023-03-23T01:38:34;5.13;;;2.77;;
36599;SDS011;35385;55.668;37.508;2023-03-23T01:39:36;4.25;;;2.78;;
36599;SDS011;35385;55.668;37.508;2023-03-23T01:40:37;5.25;;;2.53;;
36599;SDS011;35385;55.668;37.508;2023-03-23T01:41:37;3.33;;;2.43;;
36599;SDS011;35385;55.668;37.508;2023-03-23T01:42:40;3.53;;;2.80;;
36599;SDS011;35385;55.668;37.508;2023-03-23T01:46:20;3.83;;;2.25;;
36599;SDS011;35385;55.668;37.508;2023-03-23T01:47:22;4.03;;;2.83;;
36599;SDS011;35385;55.668;37.508;2023-03-23T01:48:30;3.55;;;2.72;;
36599;SDS011;35385;55.668;37.508;2023-03-23T01:49:39;5.60;;;2.80;;
36599;SDS011;35385;55.668;37.508;2023-03-23T01:50:47;3.42;;;2.70;;
36599;SDS011;35385;55.668;37.508;2023-03-23T01:51:53;3.58;;;2.63;;
36599;SDS011;35385;55.668;37.508;2023-03-23T01:52:57;3.88;;;2.58;;
36599;SDS011;35385;55.668;37.508;2023-03-23T01:54:02;4.90;;;2.92;;
36599;SDS011;35385;55.668;37.508;2023-03-23T01:55:06;3.70;;;3.03;;
36599;SDS011;35385;55.668;37.508;2023-03-23T01:56:07;3.85;;;2.72;;
36599;SDS011;35385;55.668;37.508;2023-03-23T01:57:12;4.25;;;2.75;;
36599;SDS011;35385;55.668;37.508;2023-03-23T01:58:19;4.10;;;2.60;;
36599;SDS011;35385;55.668;37.508;2023-03-23T01:59:25;3.90;;;2.35;;
36599;SDS011;35385;55.668;37.508;2023-03-23T02:00:28;4.45;;;2.45;;
36599;SDS011;35385;55.668;37.508;2023-03-23T02:01:30;5.57;;;2.65;;
36599;SDS011;35385;55.668;37.508;2023-03-23T02:02:31;3.93;;;2.67;;
36599;SDS011;35385;55.668;37.508;2023-03-23T02:03:35;4.70;;;2.80;;
36599;SDS011;35385;55.668;37.508;2023-03-23T02:04:38;3.75;;;2.60;;
36599;SDS011;35385;55.668;37.508;2023-03-23T02:05:41;4.50;;;2.80;;
36599;SDS011;35385;55.668;37.508;2023-03-23T02:06:42;4.25;;;2.83;;
36599;SDS011;35385;55.668;37.508;2023-03-23T02:08:45;4.47;;;2.80;;
36599;SDS011;35385;55.668;37.508;2023-03-23T02:09:50;5.78;;;3.08;;
36599;SDS011;35385;55.668;37.508;2023-03-23T02:10:51;6.45;;;2.80;;
36599;SDS011;35385;55.668;37.508;2023-03-23T02:11:52;5.50;;;2.77;;
36599;SDS011;35385;55.668;37.508;2023-03-23T02:12:54;3.65;;;2.30;;
36599;SDS011;35385;55.668;37.508;2023-03-23T02:13:55;4.03;;;2.70;;
36599;SDS011;35385;55.668;37.508;2023-03-23T02:14:55;3.40;;;2.57;;
36599;SDS011;35385;55.668;37.508;2023-03-23T02:17:32;5.05;;;2.92;;
36599;SDS011;35385;55.668;37.508;2023-03-23T02:25:34;3.13;;;2.47;;
36599;SDS011;35385;55.668;37.508;2023-03-23T02:27:02;5.25;;;2.65;;
36599;SDS011;35385;55.668;37.508;2023-03-23T02:31:36;3.83;;;2.47;;
36599;SDS011;35385;55.668;37.508;2023-03-23T02:34:08;4.35;;;2.70;;
36599;SDS011;35385;55.668;37.508;2023-03-23T02:35:18;4.03;;;2.80;;
36599;SDS011;35385;55.668;37.508;2023-03-23T02:36:33;3.38;;;2.67;;
36599;SDS011;35385;55.668;37.508;2023-03-23T02:39:12;4.65;;;2.83;;
36599;SDS011;35385;55.668;37.508;2023-03-23T02:40:20;5.05;;;2.70;;
36599;SDS011;35385;55.668;37.508;2023-03-23T02:41:29;5.32;;;3.10;;
36599;SDS011;35385;55.668;37.508;2023-03-23T02:42:36;4.30;;;2.90;;
36599;SDS011;35385;55.668;37.508;2023-03-23T02:43:40;3.50;;;2.78;;
36599;SDS011;35385;55.668;37.508;2023-03-23T02:44:45;3.35;;;2.72;;
36599;SDS011;35385;55.668;37.508;2023-03-23T02:45:47;3.85;;;2.70;;
36599;SDS011;35385;55.668;37.508;2023-03-23T02:46:50;5.15;;;2.83;;
36599;SDS011;35385;55.668;37.508;2023-03-23T02:47:53;3.53;;;2.60;;
36599;SDS011;35385;55.668;37.508;2023-03-23T02:48:55;4.90;;;3.10;;
36599;SDS011;35385;55.668;37.508;2023-03-23T02:49:58;4.75;;;3.28;;
36599;SDS011;35385;55.668;37.508;2023-03-23T02:51:00;4.13;;;2.70;;
36599;SDS011;35385;55.668;37.508;2023-03-23T02:52:10;5.32;;;2.90;;
36599;SDS011;35385;55.668;37.508;2023-03-23T02:53:16;3.90;;;2.80;;
36599;SDS011;35385;55.668;37.508;2023-03-23T02:54:21;4.45;;;2.72;;
36599;SDS011;35385;55.668;37.508;2023-03-23T02:55:26;4.47;;;2.97;;
36599;SDS011;35385;55.668;37.508;2023-03-23T02:56:30;3.38;;;2.60;;
36599;SDS011;35385;55.668;37.508;2023-03-23T02:57:33;5.38;;;3.08;;
36599;SDS011;35385;55.668;37.508;2023-03-23T02:58:35;5.63;;;3.35;;
36599;SDS011;35385;55.668;37.508;2023-03-23T02:59:36;4.43;;;3.13;;
36599;SDS011;35385;55.668;37.508;2023-03-23T03:00:37;4.40;;;3.00;;
36599;SDS011;35385;55.668;37.508;2023-03-23T03:02:39;4.33;;;3.13;;
36599;SDS011;35385;55.668;37.508;2023-03-23T03:03:43;6.55;;;3.25;;
36599;SDS011;35385;55.668;37.508;2023-03-23T03:04:48;4.53;;;3.00;;
36599;SDS011;35385;55.668;37.508;2023-03-23T03:08:57;4.32;;;2.83;;
36599;SDS011;35385;55.668;37.508;2023-03-23T03:11:39;4.13;;;2.80;;
36599;SDS011;35385;55.668;37.508;2023-03-23T03:14:11;4.57;;;3.00;;
36599;SDS011;35385;55.668;37.508;2023-03-23T03:17:19;4.88;;;3.22;;
36599;SDS011;35385;55.668;37.508;2023-03-23T03:18:27;5.05;;;2.83;;
36599;SDS011;35385;55.668;37.508;2023-03-23T03:19:42;5.63;;;3.00;;
36599;SDS011;35385;55.668;37.508;2023-03-23T03:20:50;5.93;;;3.28;;
36599;SDS011;35385;55.668;37.508;2023-03-23T03:21:54;5.15;;;3.28;;
36599;SDS011;35385;55.668;37.508;2023-03-23T03:22:58;4.40;;;3.20;;
36599;SDS011;35385;55.668;37.508;2023-03-23T03:24:01;4.20;;;2.83;;
36599;SDS011;35385;55.668;37.508;2023-03-23T03:25:04;5.82;;;3.60;;
36599;SDS011;35385;55.668;37.508;2023-03-23T03:26:06;5.15;;;3.20;;
36599;SDS011;35385;55.668;37.508;2023-03-23T03:27:10;5.15;;;3.25;;
36599;SDS011;35385;55.668;37.508;2023-03-23T03:28:17;4.55;;;3.25;;
36599;SDS011;35385;55.668;37.508;2023-03-23T03:29:22;4.38;;;3.30;;
36599;SDS011;35385;55.668;37.508;2023-03-23T03:30:26;5.40;;;2.95;;
36599;SDS011;35385;55.668;37.508;2023-03-23T03:31:36;4.00;;;2.90;;
36599;SDS011;35385;55.668;37.508;2023-03-23T03:32:48;4.25;;;3.30;;
36599;SDS011;35385;55.668;37.508;2023-03-23T03:33:53;5.88;;;3.38;;
36599;SDS011;35385;55.668;37.508;2023-03-23T03:34:54;5.93;;;3.10;;
36599;SDS011;35385;55.668;37.508;2023-03-23T03:35:54;4.17;;;3.20;;
36599;SDS011;35385;55.668;37.508;2023-03-23T03:36:57;5.65;;;3.83;;
36599;SDS011;35385;55.668;37.508;2023-03-23T03:39:06;4.38;;;3.47;;
36599;SDS011;35385;55.668;37.508;2023-03-23T03:40:11;5.75;;;3.70;;
36599;SDS011;35385;55.668;37.508;2023-03-23T03:41:14;4.35;;;3.03;;
36599;SDS011;35385;55.668;37.508;2023-03-23T03:42:16;4.70;;;3.20;;
36599;SDS011;35385;55.668;37.508;2023-03-23T03:43:17;4.63;;;3.40;;
36599;SDS011;35385;55.668;37.508;2023-03-23T03:44:17;7.13;;;3.70;;
36599;SDS011;35385;55.668;37.508;2023-03-23T03:45:18;5.47;;;3.40;;
36599;SDS011;35385;55.668;37.508;2023-03-23T03:47:20;5.55;;;3.80;;
36599;SDS011;35385;55.668;37.508;2023-03-23T03:48:20;5.13;;;3.30;;
36599;SDS011;35385;55.668;37.508;2023-03-23T03:49:21;5.07;;;3.43;;
36599;SDS011;35385;55.668;37.508;2023-03-23T03:50:22;4.45;;;3.50;;
36599;SDS011;35385;55.668;37.508;2023-03-23T03:51:24;6.00;;;3.77;;
36599;SDS011;35385;55.668;37.508;2023-03-23T03:52:25;7.00;;;3.88;;
36599;SDS011;35385;55.668;37.508;2023-03-23T03:53:27;5.78;;;3.90;;
36599;SDS011;35385;55.668;37.508;2023-03-23T03:54:28;5.13;;;3.80;;
36599;SDS011;35385;55.668;37.508;2023-03-23T03:55:28;6.17;;;3.90;;
36599;SDS011;35385;55.668;37.508;2023-03-23T03:56:29;8.83;;;3.97;;
36599;SDS011;35385;55.668;37.508;2023-03-23T03:57:31;6.03;;;3.65;;
36599;SDS011;35385;55.668;37.508;2023-03-23T03:58:32;8.47;;;4.50;;
36599;SDS011;35385;55.668;37.508;2023-03-23T03:59:36;8.43;;;4.63;;
36599;SDS011;35385;55.668;37.508;2023-03-23T04:00:36;6.90;;;4.53;;
36599;SDS011;35385;55.668;37.508;2023-03-23T04:01:37;7.57;;;4.60;;
36599;SDS011;35385;55.668;37.508;2023-03-23T04:02:38;7.28;;;4.60;;
36599;SDS011;35385;55.668;37.508;2023-03-23T04:03:39;6.73;;;4.30;;
36599;SDS011;35385;55.668;37.508;2023-03-23T04:04:39;9.53;;;4.90;;
36599;SDS011;35385;55.668;37.508;2023-03-23T04:06:42;6.65;;;4.10;;
36599;SDS011;35385;55.668;37.508;2023-03-23T04:07:42;7.17;;;4.77;;
36599;SDS011;35385;55.668;37.508;2023-03-23T04:08:43;7.63;;;4.60;;
36599;SDS011;35385;55.668;37.508;2023-03-23T04:09:45;6.13;;;4.03;;
36599;SDS011;35385;55.668;37.508;2023-03-23T04:10:47;7.93;;;4.50;;
36599;SDS011;35385;55.668;37.508;2023-03-23T04:11:48;6.45;;;4.55;;
36599;SDS011;35385;55.668;37.508;2023-03-23T04:12:49;8.33;;;4.37;;
36599;SDS011;35385;55.668;37.508;2023-03-23T04:13:50;7.30;;;4.90;;
36599;SDS011;35385;55.668;37.508;2023-03-23T04:14:50;7.07;;;4.77;;
36599;SDS011;35385;55.668;37.508;2023-03-23T04:15:51;9.53;;;5.40;;
36599;SDS011;35385;55.668;37.508;2023-03-23T04:16:51;8.23;;;5.57;;
36599;SDS011;35385;55.668;37.508;2023-03-23T04:17:56;7.47;;;4.43;;
36599;SDS011;35385;55.668;37.508;2023-03-23T04:18:57;10.30;;;6.00;;
36599;SDS011;35385;55.668;37.508;2023-03-23T04:19:58;7.13;;;5.30;;
36599;SDS011;35385;55.668;37.508;2023-03-23T04:22:01;9.35;;;5.05;;
36599;SDS011;35385;55.668;37.508;2023-03-23T04:23:02;7.85;;;5.13;;
36599;SDS011;35385;55.668;37.508;2023-03-23T04:24:02;7.50;;;5.20;;
36599;SDS011;35385;55.668;37.508;2023-03-23T04:25:03;8.73;;;5.00;;
36599;SDS011;35385;55.668;37.508;2023-03-23T04:26:06;9.75;;;5.57;;
36599;SDS011;35385;55.668;37.508;2023-03-23T04:27:07;9.43;;;5.57;;
36599;SDS011;35385;55.668;37.508;2023-03-23T04:28:07;9.70;;;5.77;;
36599;SDS011;35385;55.668;37.508;2023-03-23T04:29:10;10.95;;;5.25;;
36599;SDS011;35385;55.668;37.508;2023-03-23T04:30:13;12.25;;;6.03;;
36599;SDS011;35385;55.668;37.508;2023-03-23T04:31:14;7.32;;;5.07;;
36599;SDS011;35385;55.668;37.508;2023-03-23T04:32:14;8.47;;;5.17;;
36599;SDS011;35385;55.668;37.508;2023-03-23T04:33:17;7.55;;;5.03;;
36599;SDS011;35385;55.668;37.508;2023-03-23T04:34:22;11.65;;;5.40;;
36599;SDS011;35385;55.668;37.508;2023-03-23T04:35:24;8.75;;;6.03;;
36599;SDS011;35385;55.668;37.508;2023-03-23T04:36:26;10.52;;;5.88;;
36599;SDS011;35385;55.668;37.508;2023-03-23T04:37:28;9.77;;;5.95;;
36599;SDS011;35385;55.668;37.508;2023-03-23T04:38:29;10.37;;;6.00;;
36599;SDS011;35385;55.668;37.508;2023-03-23T04:39:32;10.15;;;5.70;;
36599;SDS011;35385;55.668;37.508;2023-03-23T04:40:35;9.40;;;5.93;;
36599;SDS011;35385;55.668;37.508;2023-03-23T04:41:37;8.88;;;6.13;;
36599;SDS011;35385;55.668;37.508;2023-03-23T04:42:38;9.75;;;6.25;;
36599;SDS011;35385;55.668;37.508;2023-03-23T04:43:39;9.40;;;5.95;;
36599;SDS011;35385;55.668;37.508;2023-03-23T04:44:41;9.65;;;5.15;;
36599;SDS011;35385;55.668;37.508;2023-03-23T04:46:45;9.38;;;5.53;;
36599;SDS011;35385;55.668;37.508;2023-03-23T04:47:49;8.95;;;5.57;;
36599;SDS011;35385;55.668;37.508;2023-03-23T04:48:57;10.75;;;5.95;;
36599;SDS011;35385;55.668;37.508;2023-03-23T04:49:58;9.77;;;5.78;;
36599;SDS011;35385;55.668;37.508;2023-03-23T04:51:03;11.45;;;6.88;;
36599;SDS011;35385;55.668;37.508;2023-03-23T04:52:04;9.95;;;5.63;;
36599;SDS011;35385;55.668;37.508;2023-03-23T04:53:05;9.75;;;5.53;;
36599;SDS011;35385;55.668;37.508;2023-03-23T04:54:06;9.40;;;6.00;;
36599;SDS011;35385;55.668;37.508;2023-03-23T04:55:07;11.30;;;6.28;;
36599;SDS011;35385;55.668;37.508;2023-03-23T04:56:09;9.20;;;5.93;;
36599;SDS011;35385;55.668;37.508;2023-03-23T04:57:09;9.97;;;6.37;;
36599;SDS011;35385;55.668;37.508;2023-03-23T04:58:12;11.93;;;5.85;;
36599;SDS011;35385;55.668;37.508;2023-03-23T04:59:14;11.57;;;5.82;;
36599;SDS011;35385;55.668;37.508;2023-03-23T05:00:15;12.53;;;6.50;;
36599;SDS011;35385;55.668;37.508;2023-03-23T05:01:16;9.43;;;6.15;;
36599;SDS011;35385;55.668;37.508;2023-03-23T05:02:17;9.52;;;5.72;;
36599;SDS011;35385;55.668;37.508;2023-03-23T05:03:18;8.47;;;5.77;;
36599;SDS011;35385;55.668;37.508;2023-03-23T05:04:20;11.70;;;6.28;;
36599;SDS011;35385;55.668;37.508;2023-03-23T05:05:21;10.37;;;6.53;;
36599;SDS011;35385;55.668;37.508;2023-03-23T05:06:23;9.38;;;6.20;;
36599;SDS011;35385;55.668;37.508;2023-03-23T05:07:23;10.20;;;6.00;;
36599;SDS011;35385;55.668;37.508;2023-03-23T05:08:24;8.70;;;5.73;;
36599;SDS011;35385;55.668;37.508;2023-03-23T05:09:25;11.10;;;6.43;;
36599;SDS011;35385;55.668;37.508;2023-03-23T05:10:25;10.23;;;6.17;;
36599;SDS011;35385;55.668;37.508;2023-03-23T05:11:26;12.20;;;6.77;;
36599;SDS011;35385;55.668;37.508;2023-03-23T05:12:26;9.77;;;6.37;;
36599;SDS011;35385;55.668;37.508;2023-03-23T05:13:27;11.00;;;5.83;;
36599;SDS011;35385;55.668;37.508;2023-03-23T05:14:28;12.65;;;6.28;;
36599;SDS011;35385;55.668;37.508;2023-03-23T05:15:29;10.55;;;6.10;;
36599;SDS011;35385;55.668;37.508;2023-03-23T05:16:30;11.63;;;6.27;;
36599;SDS011;35385;55.668;37.508;2023-03-23T05:17:30;10.20;;;6.13;;
36599;SDS011;35385;55.668;37.508;2023-03-23T05:18:32;10.63;;;6.22;;
36599;SDS011;35385;55.668;37.508;2023-03-23T05:19:33;11.27;;;6.15;;
36599;SDS011;35385;55.668;37.508;2023-03-23T05:20:34;14.03;;;6.53;;
36599;SDS011;35385;55.668;37.508;2023-03-23T05:21:34;8.93;;;6.50;;
36599;SDS011;35385;55.668;37.508;2023-03-23T05:22:35;9.30;;;6.33;;
36599;SDS011;35385;55.668;37.508;2023-03-23T05:23:36;10.32;;;6.43;;
36599;SDS011;35385;55.668;37.508;2023-03-23T05:24:37;8.80;;;5.90;;
36599;SDS011;35385;55.668;37.508;2023-03-23T05:25:37;7.93;;;5.77;;
36599;SDS011;35385;55.668;37.508;2023-03-23T05:26:41;9.35;;;5.82;;
36599;SDS011;35385;55.668;37.508;2023-03-23T05:27:42;8.40;;;6.03;;
36599;SDS011;35385;55.668;37.508;2023-03-23T05:28:43;9.05;;;6.45;;
36599;SDS011;35385;55.668;37.508;2023-03-23T05:29:43;10.77;;;6.80;;
36599;SDS011;35385;55.668;37.508;2023-03-23T05:30:45;12.00;;;6.43;;
36599;SDS011;35385;55.668;37.508;2023-03-23T05:31:46;8.53;;;6.00;;
36599;SDS011;35385;55.668;37.508;2023-03-23T05:32:48;9.50;;;6.25;;
36599;SDS011;35385;55.668;37.508;2023-03-23T05:33:52;11.68;;;6.70;;
36599;SDS011;35385;55.668;37.508;2023-03-23T05:34:52;8.10;;;5.73;;
36599;SDS011;35385;55.668;37.508;2023-03-23T05:35:53;8.70;;;5.83;;
36599;SDS011;35385;55.668;37.508;2023-03-23T05:36:54;8.83;;;6.10;;
36599;SDS011;35385;55.668;37.508;2023-03-23T05:37:57;8.10;;;6.03;;
36599;SDS011;35385;55.668;37.508;2023-03-23T05:38:58;14.23;;;6.93;;
36599;SDS011;35385;55.668;37.508;2023-03-23T05:40:00;9.35;;;5.68;;
36599;SDS011;35385;55.668;37.508;2023-03-23T05:41:06;8.98;;;6.07;;
36599;SDS011;35385;55.668;37.508;2023-03-23T05:42:06;10.20;;;6.57;;
36599;SDS011;35385;55.668;37.508;2023-03-23T05:43:08;8.50;;;6.10;;
36599;SDS011;35385;55.668;37.508;2023-03-23T05:44:09;10.45;;;5.82;;
36599;SDS011;35385;55.668;37.508;2023-03-23T05:45:09;12.63;;;5.97;;
36599;SDS011;35385;55.668;37.508;2023-03-23T05:46:11;9.65;;;6.63;;
36599;SDS011;35385;55.668;37.508;2023-03-23T05:47:11;9.53;;;5.90;;
36599;SDS011;35385;55.668;37.508;2023-03-23T05:48:12;8.68;;;5.70;;
36599;SDS011;35385;55.668;37.508;2023-03-23T05:49:13;7.43;;;5.60;;
36599;SDS011;35385;55.668;37.508;2023-03-23T05:50:16;11.40;;;5.75;;
36599;SDS011;35385;55.668;37.508;2023-03-23T05:51:17;10.45;;;5.97;;
36599;SDS011;35385;55.668;37.508;2023-03-23T05:52:18;13.98;;;6.63;;
36599;SDS011;35385;55.668;37.508;2023-03-23T05:53:20;10.45;;;6.65;;
36599;SDS011;35385;55.668;37.508;2023-03-23T05:54:21;9.80;;;6.10;;
36599;SDS011;35385;55.668;37.508;2023-03-23T05:55:21;9.43;;;6.33;;
36599;SDS011;35385;55.668;37.508;2023-03-23T05:56:22;10.17;;;6.10;;
36599;SDS011;35385;55.668;37.508;2023-03-23T05:57:22;8.60;;;6.27;;
36599;SDS011;35385;55.668;37.508;2023-03-23T05:58:23;9.87;;;6.50;;
36599;SDS011;35385;55.668;37.508;2023-03-23T05:59:23;10.83;;;6.67;;
36599;SDS011;35385;55.668;37.508;2023-03-23T06:00:24;11.07;;;6.30;;
36599;SDS011;35385;55.668;37.508;2023-03-23T06:01:29;16.15;;;6.57;;
36599;SDS011;35385;55.668;37.508;2023-03-23T06:02:29;9.67;;;6.30;;
36599;SDS011;35385;55.668;37.508;2023-03-23T06:03:31;10.13;;;6.43;;
36599;SDS011;35385;55.668;37.508;2023-03-23T06:04:31;13.80;;;6.67;;
36599;SDS011;35385;55.668;37.508;2023-03-23T06:05:33;10.10;;;6.28;;
36599;SDS011;35385;55.668;37.508;2023-03-23T06:06:35;10.45;;;6.45;;
36599;SDS011;35385;55.668;37.508;2023-03-23T06:07:36;14.55;;;6.38;;
36599;SDS011;35385;55.668;37.508;2023-03-23T06:08:37;7.63;;;5.72;;
36599;SDS011;35385;55.668;37.508;2023-03-23T06:09:39;11.70;;;6.72;;
36599;SDS011;35385;55.668;37.508;2023-03-23T06:10:40;9.60;;;6.45;;
36599;SDS011;35385;55.668;37.508;2023-03-23T06:11:40;10.87;;;6.43;;
36599;SDS011;35385;55.668;37.508;2023-03-23T06:12:41;8.97;;;5.90;;
36599;SDS011;35385;55.668;37.508;2023-03-23T06:13:41;10.83;;;6.10;;
36599;SDS011;35385;55.668;37.508;2023-03-23T06:14:43;10.30;;;6.82;;
36599;SDS011;35385;55.668;37.508;2023-03-23T06:15:43;11.17;;;6.43;;
36599;SDS011;35385;55.668;37.508;2023-03-23T06:16:44;9.67;;;6.50;;
36599;SDS011;35385;55.668;37.508;2023-03-23T06:17:45;12.27;;;7.07;;
36599;SDS011;35385;55.668;37.508;2023-03-23T06:18:45;14.57;;;6.82;;
36599;SDS011;35385;55.668;37.508;2023-03-23T06:19:46;8.87;;;6.43;;
36599;SDS011;35385;55.668;37.508;2023-03-23T06:20:49;9.40;;;6.47;;
36599;SDS011;35385;55.668;37.508;2023-03-23T06:21:51;10.10;;;6.57;;
36599;SDS011;35385;55.668;37.508;2023-03-23T06:22:51;10.93;;;6.70;;
36599;SDS011;35385;55.668;37.508;2023-03-23T06:23:52;10.93;;;6.40;;
36599;SDS011;35385;55.668;37.508;2023-03-23T06:24:53;9.90;;;6.63;;
36599;SDS011;35385;55.668;37.508;2023-03-23T06:25:54;10.00;;;6.43;;
36599;SDS011;35385;55.668;37.508;2023-03-23T06:26:57;10.38;;;6.25;;
36599;SDS011;35385;55.668;37.508;2023-03-23T06:27:59;10.57;;;5.97;;
36599;SDS011;35385;55.668;37.508;2023-03-23T06:28:59;11.77;;;6.67;;
36599;SDS011;35385;55.668;37.508;2023-03-23T06:30:00;9.97;;;6.37;;
36599;SDS011;35385;55.668;37.508;2023-03-23T06:31:04;10.25;;;6.70;;
36599;SDS011;35385;55.668;37.508;2023-03-23T06:32:06;9.73;;;6.72;;
36599;SDS011;35385;55.668;37.508;2023-03-23T06:33:07;10.75;;;6.60;;
36599;SDS011;35385;55.668;37.508;2023-03-23T06:34:09;10.00;;;5.93;;
36599;SDS011;35385;55.668;37.508;2023-03-23T06:35:10;13.33;;;6.50;;
36599;SDS011;35385;55.668;37.508;2023-03-23T06:36:11;8.43;;;5.60;;
36599;SDS011;35385;55.668;37.508;2023-03-23T06:37:12;8.40;;;6.13;;
36599;SDS011;35385;55.668;37.508;2023-03-23T06:38:12;10.57;;;6.37;;
36599;SDS011;35385;55.668;37.508;2023-03-23T06:39:13;11.10;;;6.37;;
36599;SDS011;35385;55.668;37.508;2023-03-23T06:40:14;9.37;;;6.60;;
36599;SDS011;35385;55.668;37.508;2023-03-23T06:41:14;12.47;;;6.47;;
36599;SDS011;35385;55.668;37.508;2023-03-23T06:42:15;11.80;;;6.53;;